Time;durP1;ratioP1;P1;durP2;ratioP2;P2;SDS_P1;SDS_P2;PMS_P1;PMS_P2;Temp;Humidity;BMP_temperature;BMP_pressure;BME280_temperature;BME280_humidity;BME280_pressure;Samples;Min_cycle;Max_cycle;Signal;HPM_P1;HPM_P2
2024/01/09 00:01:13;;;;;;;32.22;13.73;;;;;;;-12.52;100.00;100154.88;6106969;19;20381;-70
2024/01/09 00:03:13;;;;;;;31.38;12.90;;;;;;;-12.51;100.00;100158.38;6107534;19;20010;-70
2024/01/09 00:05:13;;;;;;;31.45;12.35;;;;;;;-12.41;100.00;100163.41;6109522;19;20018;-70
2024/01/09 00:07:14;;;;;;;34.20;13.30;;;;;;;-12.43;100.00;100162.75;6109051;19;20007;-70
2024/01/09 00:09:14;;;;;;;30.45;12.73;;;;;;;-12.40;100.00;100163.22;6109118;19;20015;-70
2024/01/09 00:11:15;;;;;;;30.85;12.50;;;;;;;-12.48;100.00;100150.84;6109453;19;20010;-70
2024/01/09 00:13:15;;;;;;;24.13;13.15;;;;;;;-12.59;100.00;100167.31;6107168;19;20025;-70
2024/01/09 00:15:15;;;;;;;37.40;14.60;;;;;;;-12.62;100.00;100158.88;6109535;19;20455;-70
2024/01/09 00:17:16;;;;;;;30.55;13.57;;;;;;;-12.67;100.00;100170.06;6108314;19;20007;-70
2024/01/09 00:19:16;;;;;;;26.42;12.63;;;;;;;-12.79;100.00;100168.91;6107911;19;20056;-70
2024/01/09 00:21:16;;;;;;;30.45;14.55;;;;;;;-12.86;100.00;100163.50;6108427;19;20033;-70
2024/01/09 00:23:16;;;;;;;25.92;12.75;;;;;;;-12.87;100.00;100161.00;6107551;19;20014;-70
2024/01/09 00:25:18;;;;;;;25.48;13.27;;;;;;;-12.89;100.00;100160.38;6106164;19;20412;-70
2024/01/09 00:27:18;;;;;;;30.50;13.20;;;;;;;-12.86;100.00;100171.47;6107099;19;20010;-70
2024/01/09 00:29:18;;;;;;;27.48;13.07;;;;;;;-12.89;100.00;100166.53;6107625;19;20537;-70
2024/01/09 00:31:19;;;;;;;31.30;12.68;;;;;;;-12.88;100.00;100170.03;6108934;19;20023;-70
2024/01/09 00:33:19;;;;;;;32.50;14.40;;;;;;;-12.84;100.00;100161.47;6107001;19;19999;-70
2024/01/09 00:35:19;;;;;;;34.00;13.73;;;;;;;-12.83;100.00;100164.94;6108531;19;20491;-70
2024/01/09 00:37:20;;;;;;;27.27;12.73;;;;;;;-12.89;100.00;100158.53;6108368;19;20265;-70
2024/01/09 00:39:20;;;;;;;30.55;14.43;;;;;;;-12.93;100.00;100172.41;6108967;19;20003;-70
2024/01/09 00:41:20;;;;;;;29.95;13.15;;;;;;;-12.98;100.00;100167.66;6106488;19;20070;-70
2024/01/09 00:43:21;;;;;;;35.25;14.82;;;;;;;-12.95;100.00;100166.44;6108177;19;20481;-70
2024/01/09 00:45:21;;;;;;;24.63;11.65;;;;;;;-12.95;100.00;100159.28;6108974;19;20044;-70
2024/01/09 00:47:21;;;;;;;30.45;13.23;;;;;;;-12.90;100.00;100166.72;6107945;19;20058;-70
2024/01/09 00:49:22;;;;;;;40.15;14.23;;;;;;;-12.89;100.00;100171.03;6108101;19;20341;-70
2024/01/09 00:51:22;;;;;;;32.72;14.13;;;;;;;-12.88;100.00;100168.19;6108917;19;20014;-70
2024/01/09 00:53:22;;;;;;;32.55;14.60;;;;;;;-12.93;100.00;100165.25;6106682;19;20010;-70
2024/01/09 00:55:22;;;;;;;35.15;14.80;;;;;;;-12.91;100.00;100165.03;6107408;19;20007;-70
2024/01/09 00:57:23;;;;;;;35.03;16.30;;;;;;;-12.85;100.00;100164.31;6108075;19;20003;-70
2024/01/09 00:59:23;;;;;;;29.55;12.57;;;;;;;-12.84;100.00;100161.47;6108371;19;20007;-70
2024/01/09 01:01:24;;;;;;;27.35;12.57;;;;;;;-12.70;100.00;100164.31;6106480;19;20003;-70
2024/01/09 01:03:24;;;;;;;30.92;12.95;;;;;;;-12.58;100.00;100157.47;6112968;19;20054;-70
2024/01/09 01:05:24;;;;;;;30.52;13.40;;;;;;;-12.56;100.00;100164.28;6113033;19;20045;-70
2024/01/09 01:07:25;;;;;;;30.25;13.80;;;;;;;-12.55;100.00;100159.78;6112543;19;20006;-70
2024/01/09 01:09:25;;;;;;;32.45;12.95;;;;;;;-12.68;100.00;100159.59;6112728;19;20374;-70
2024/01/09 01:11:25;;;;;;;24.70;11.95;;;;;;;-12.66;100.00;100161.06;6113614;19;20003;-70
2024/01/09 01:13:26;;;;;;;30.13;13.65;;;;;;;-12.70;100.00;100164.31;6112276;19;20022;-70
2024/01/09 01:15:26;;;;;;;28.95;12.52;;;;;;;-12.73;100.00;100160.19;6113149;19;20090;-70
2024/01/09 01:17:26;;;;;;;36.10;13.13;;;;;;;-12.73;100.00;100152.19;6113340;19;20379;-70
2024/01/09 01:19:27;;;;;;;28.38;13.25;;;;;;;-12.78;100.00;100159.91;6112756;19;20495;-70
2024/01/09 01:21:27;;;;;;;21.55;11.10;;;;;;;-12.80;100.00;100170.75;6113069;19;20007;-70
2024/01/09 01:23:27;;;;;;;26.38;12.27;;;;;;;-12.90;100.00;100169.41;6112634;19;20439;-70
2024/01/09 01:25:28;;;;;;;22.85;10.57;;;;;;;-12.94;100.00;100176.09;6112927;19;20010;-70
2024/01/09 01:27:28;;;;;;;28.13;12.25;;;;;;;-12.95;100.00;100169.09;6111161;19;20025;-70
2024/01/09 01:29:28;;;;;;;20.92;11.25;;;;;;;-12.85;100.00;100177.63;6113707;19;20370;-70
2024/01/09 01:31:29;;;;;;;30.45;12.63;;;;;;;-12.86;100.00;100182.16;6112560;19;20011;-70
2024/01/09 01:33:29;;;;;;;23.05;10.93;;;;;;;-12.96;100.00;100178.94;6111166;19;20002;-70
2024/01/09 01:35:29;;;;;;;27.00;11.48;;;;;;;-13.04;100.00;100187.03;6112124;19;20006;-70
2024/01/09 01:37:30;;;;;;;32.55;14.07;;;;;;;-13.13;100.00;100172.97;6112856;19;20334;-70
2024/01/09 01:39:30;;;;;;;41.65;16.83;;;;;;;-13.10;100.00;100175.25;6111725;19;20012;-70
2024/01/09 01:41:30;;;;;;;28.90;14.13;;;;;;;-13.10;100.00;100174.44;6113467;19;20006;-70
2024/01/09 01:43:30;;;;;;;34.20;14.07;;;;;;;-13.11;100.00;100176.28;6109988;19;20006;-70
2024/01/09 01:45:31;;;;;;;29.17;11.80;;;;;;;-13.08;100.00;100186.56;6112786;19;20345;-70
2024/01/09 01:47:32;;;;;;;30.80;13.57;;;;;;;-13.14;100.00;100181.16;6111829;19;20031;-70
2024/01/09 01:49:33;;;;;;;27.65;13.50;;;;;;;-13.27;100.00;100187.13;6102135;19;20002;-70
2024/01/09 01:51:33;;;;;;;39.78;15.38;;;;;;;-13.31;100.00;100172.53;6112018;19;20006;-70
2024/01/09 01:53:34;;;;;;;47.60;17.35;;;;;;;-13.20;100.00;100182.72;6110333;19;20006;-70
2024/01/09 01:55:35;;;;;;;42.78;16.42;;;;;;;-13.04;100.00;100184.38;6112820;19;20002;-70
2024/01/09 01:57:36;;;;;;;41.87;14.83;;;;;;;-13.17;100.00;100187.66;6111186;19;20416;-70
2024/01/09 01:59:42;;;;;;;35.95;14.45;;;;;;;-13.20;100.00;100190.72;6111983;19;20370;-70
2024/01/09 02:01:43;;;;;;;33.13;14.10;;;;;;;-13.24;100.00;100189.41;6111827;19;20351;-70
2024/01/09 02:03:44;;;;;;;30.52;14.55;;;;;;;-13.27;100.00;100184.47;6106506;19;20072;-70
2024/01/09 02:05:45;;;;;;;24.38;12.43;;;;;;;-13.27;100.00;100188.97;6112379;19;20006;-70
2024/01/09 02:07:50;;;;;;;47.95;17.30;;;;;;;-13.41;100.00;100193.25;6108729;19;20016;-70
2024/01/09 02:09:53;;;;;;;44.08;15.63;;;;;;;-13.48;100.00;100184.38;6111626;19;20356;-70
2024/01/09 02:11:54;;;;;;;37.67;16.13;;;;;;;-13.42;100.00;100186.28;6110552;19;20424;-70
2024/01/09 02:13:54;;;;;;;41.88;16.75;;;;;;;-13.41;100.00;100191.41;6108038;19;20019;-70
2024/01/09 02:15:55;;;;;;;36.63;15.75;;;;;;;-13.30;100.00;100195.50;6111222;19;20407;-70
2024/01/09 02:17:55;;;;;;;38.90;16.08;;;;;;;-13.33;100.00;100185.19;6106997;19;20003;-70
2024/01/09 02:19:55;;;;;;;34.13;13.15;;;;;;;-13.35;100.00;100185.38;6110434;19;19998;-70
2024/01/09 02:21:56;;;;;;;55.38;18.45;;;;;;;-13.33;100.00;100182.53;6111492;19;19999;-70
2024/01/09 02:23:56;;;;;;;56.17;19.85;;;;;;;-13.34;100.00;100187.03;6106884;19;20011;-70
2024/01/09 02:25:57;;;;;;;52.50;15.98;;;;;;;-13.37;100.00;100189.25;6111389;19;20437;-70
2024/01/09 02:28:10;;;;;;;42.72;16.75;;;;;;;-13.42;100.00;100179.13;6111194;19;20345;-70
2024/01/09 02:30:11;;;;;;;43.40;16.08;;;;;;;-13.34;100.00;100184.38;6111095;19;20007;-70
2024/01/09 02:32:11;;;;;;;40.42;15.93;;;;;;;-13.43;100.00;100174.81;6109327;19;20011;-70
2024/01/09 02:34:14;;;;;;;42.30;14.82;;;;;;;-13.51;100.00;100171.41;6109656;19;20025;-70
2024/01/09 02:36:15;;;;;;;46.13;14.57;;;;;;;-13.43;100.00;100173.97;6110732;19;20010;-70
2024/01/09 02:38:15;;;;;;;36.10;14.30;;;;;;;-13.39;100.00;100170.78;6110832;19;20054;-70
2024/01/09 02:40:15;;;;;;;44.13;16.02;;;;;;;-13.38;100.00;100171.63;6110335;19;20078;-70
2024/01/09 02:42:16;;;;;;;55.45;18.48;;;;;;;-13.46;100.00;100163.69;6109974;19;20473;-70
2024/01/09 02:44:16;;;;;;;59.40;20.25;;;;;;;-13.40;100.00;100165.66;6108017;19;20022;-70
2024/01/09 02:46:17;;;;;;;55.10;19.70;;;;;;;-13.45;100.00;100166.19;6110610;19;20006;-70
2024/01/09 02:48:17;;;;;;;46.63;18.92;;;;;;;-13.45;100.00;100160.03;6107331;19;20383;-70
2024/01/09 02:50:17;;;;;;;48.97;16.75;;;;;;;-13.40;100.00;100166.47;6102555;19;20401;-70
2024/01/09 02:52:18;;;;;;;40.17;13.98;;;;;;;-13.41;100.00;100164.78;6101851;19;20009;-70
2024/01/09 02:54:18;;;;;;;37.50;14.85;;;;;;;-13.34;100.00;100165.72;6101087;19;20078;-70
2024/01/09 02:56:19;;;;;;;32.97;14.68;;;;;;;-13.38;100.00;100160.97;6101360;19;20006;-70
2024/01/09 02:58:19;;;;;;;36.20;14.00;;;;;;;-13.37;100.00;100158.09;6101936;19;20016;-70
2024/01/09 03:00:20;;;;;;;31.02;12.32;;;;;;;-13.39;100.00;100153.97;6102745;19;20488;-70
2024/01/09 03:02:20;;;;;;;28.50;11.93;;;;;;;-13.36;100.00;100165.09;6102555;19;20032;-70
2024/01/09 03:04:20;;;;;;;26.98;13.18;;;;;;;-13.29;100.00;100162.53;6100684;19;20026;-70
2024/01/09 03:06:21;;;;;;;23.25;10.68;;;;;;;-13.33;100.00;100159.38;6101891;19;20022;-70
2024/01/09 03:08:21;;;;;;;25.05;11.80;;;;;;;-13.36;100.00;100158.94;6101279;19;20046;-70
2024/01/09 03:10:21;;;;;;;27.77;12.35;;;;;;;-13.47;100.00;100154.06;6102183;19;20407;-70
2024/01/09 03:12:22;;;;;;;24.58;13.13;;;;;;;-13.49;100.00;100153.41;6101871;19;20035;-70
2024/01/09 03:14:22;;;;;;;30.30;11.95;;;;;;;-13.61;100.00;100156.50;6101644;19;20014;-70
2024/01/09 03:16:22;;;;;;;22.60;11.75;;;;;;;-13.64;100.00;100146.25;6101580;19;20421;-70
2024/01/09 03:18:23;;;;;;;26.65;11.90;;;;;;;-13.73;100.00;100155.31;6101378;19;20352;-70
2024/01/09 03:20:23;;;;;;;25.98;12.23;;;;;;;-13.79;100.00;100144.56;6102835;19;20078;-70
2024/01/09 03:22:24;;;;;;;24.73;11.40;;;;;;;-13.76;100.00;100158.31;6103250;19;20717;-70
2024/01/09 03:24:24;;;;;;;27.23;11.35;;;;;;;-13.73;100.00;100149.16;6100860;19;20024;-70
2024/01/09 03:26:24;;;;;;;27.80;12.00;;;;;;;-13.65;100.00;100147.25;6103472;19;20113;-70
2024/01/09 03:28:26;;;;;;;24.83;12.23;;;;;;;-13.82;100.00;100148.38;6102393;19;20010;-70
2024/01/09 03:30:29;;;;;;;21.30;10.57;;;;;;;-13.72;100.00;100140.16;6102555;19;20810;-70
2024/01/09 03:32:29;;;;;;;27.95;13.25;;;;;;;-13.68;100.00;100144.09;6102477;19;20013;-70
2024/01/09 03:34:29;;;;;;;31.38;11.02;;;;;;;-13.53;100.00;100146.81;6102054;19;20397;-70
2024/01/09 03:36:31;;;;;;;31.15;13.30;;;;;;;-13.46;100.00;100145.91;6101398;19;20011;-70
2024/01/09 03:38:31;;;;;;;33.90;13.77;;;;;;;-13.50;100.00;100147.25;6102204;19;20023;-70
2024/01/09 03:40:32;;;;;;;22.23;11.18;;;;;;;-13.48;100.00;100141.78;6102575;19;20285;-70
2024/01/09 03:42:33;;;;;;;25.42;11.65;;;;;;;-13.45;100.00;100136.06;6101939;19;20486;-70
2024/01/09 03:44:33;;;;;;;26.85;11.30;;;;;;;-13.46;100.00;100139.75;6101130;19;20255;-70
2024/01/09 03:46:33;;;;;;;24.95;12.40;;;;;;;-13.53;100.00;100136.16;6101900;19;20002;-70
2024/01/09 03:48:34;;;;;;;25.98;11.02;;;;;;;-13.55;100.00;100135.50;6104352;19;20019;-70
2024/01/09 03:50:34;;;;;;;27.15;10.50;;;;;;;-13.48;100.00;100141.78;6109331;19;20016;-70
2024/01/09 03:52:34;;;;;;;24.45;11.23;;;;;;;-13.50;100.00;100127.78;6109534;19;20011;-70
2024/01/09 03:54:34;;;;;;;26.00;10.15;;;;;;;-13.49;100.00;100135.59;6109182;19;20010;-70
2024/01/09 03:56:35;;;;;;;25.70;9.90;;;;;;;-13.55;100.00;100125.69;6106109;19;20011;-70
2024/01/09 03:58:35;;;;;;;29.83;12.75;;;;;;;-13.47;100.00;100127.44;6107714;19;20074;-70
2024/01/09 04:00:35;;;;;;;20.95;11.10;;;;;;;-13.44;100.00;100129.72;6110025;19;20336;-70
2024/01/09 04:02:37;;;;;;;23.90;10.98;;;;;;;-13.39;100.00;100130.84;6109387;19;20006;-70
2024/01/09 04:04:38;;;;;;;25.02;11.80;;;;;;;-13.36;100.00;100122.47;6106468;19;20030;-70
2024/01/09 04:06:43;;;;;;;34.63;10.32;;;;;;;-13.32;100.00;100128.25;6109171;19;20416;-70
2024/01/09 04:08:43;;;;;;;23.02;10.15;;;;;;;-13.29;100.00;100129.75;6109802;19;20022;-70
2024/01/09 04:10:43;;;;;;;21.63;10.50;;;;;;;-13.36;100.00;100132.31;6109491;19;20006;-70
2024/01/09 04:12:44;;;;;;;27.83;12.02;;;;;;;-13.37;100.00;100123.50;6109252;19;20550;-70
2024/01/09 04:14:44;;;;;;;23.65;9.85;;;;;;;-13.49;100.00;100124.13;6106845;19;20350;-70
2024/01/09 04:16:46;;;;;;;25.38;11.18;;;;;;;-13.61;100.00;100126.41;6108341;19;20010;-70
2024/01/09 04:18:47;;;;;;;20.23;9.23;;;;;;;-13.65;100.00;100123.28;6107915;19;20007;-70
2024/01/09 04:20:47;;;;;;;19.58;9.52;;;;;;;-13.72;100.00;100129.53;6108893;19;20026;-70
2024/01/09 04:22:48;;;;;;;22.85;9.95;;;;;;;-13.85;100.00;100127.47;6107540;19;20010;-70
2024/01/09 04:24:48;;;;;;;24.17;10.38;;;;;;;-13.83;100.00;100124.63;6107575;19;20011;-70
2024/01/09 04:26:48;;;;;;;24.98;12.13;;;;;;;-13.93;100.00;100125.69;6104564;19;20002;-70
2024/01/09 04:28:48;;;;;;;31.25;11.57;;;;;;;-13.88;100.00;100135.00;6108184;19;20013;-70
2024/01/09 04:30:49;;;;;;;25.13;10.68;;;;;;;-13.83;100.00;100130.75;6108145;19;20867;-70
2024/01/09 04:32:49;;;;;;;20.85;9.82;;;;;;;-13.83;100.00;100135.25;6105536;19;20003;-70
2024/01/09 04:34:50;;;;;;;21.25;9.00;;;;;;;-13.85;100.00;100130.13;6105999;19;20026;-70
2024/01/09 04:36:50;;;;;;;25.20;10.75;;;;;;;-13.88;100.00;100124.34;6105531;19;20045;-70
2024/01/09 04:38:50;;;;;;;20.77;9.40;;;;;;;-13.84;100.00;100120.31;6107504;19;20010;-70
2024/01/09 04:40:51;;;;;;;23.17;9.88;;;;;;;-13.78;100.00;100120.41;6107839;19;20451;-70
2024/01/09 04:42:51;;;;;;;21.63;9.23;;;;;;;-13.73;100.00;100127.88;6107135;19;20026;-70
2024/01/09 04:44:51;;;;;;;22.42;9.68;;;;;;;-13.66;100.00;100126.13;6107911;19;19998;-70
2024/01/09 04:46:52;;;;;;;22.23;9.98;;;;;;;-13.72;100.00;100124.19;6105675;19;20003;-70
2024/01/09 04:48:53;;;;;;;25.35;9.50;;;;;;;-13.83;100.00;100121.94;6108541;19;20299;-70
2024/01/09 04:50:53;;;;;;;19.80;9.65;;;;;;;-13.88;100.00;100125.19;6107637;19;20071;-71
2024/01/09 04:52:53;;;;;;;23.75;9.75;;;;;;;-13.86;100.00;100122.31;6107122;19;19999;-71
2024/01/09 04:54:54;;;;;;;21.38;10.05;;;;;;;-13.95;100.00;100118.91;6107914;19;20021;-71
2024/01/09 04:56:54;;;;;;;24.25;9.40;;;;;;;-13.99;100.00;100123.75;6108153;19;20463;-71
2024/01/09 04:58:54;;;;;;;23.38;8.95;;;;;;;-14.02;100.00;100120.63;6108284;19;20013;-70
2024/01/09 05:00:55;;;;;;;19.83;10.02;;;;;;;-14.06;100.00;100119.34;6107718;19;20017;-69
2024/01/09 05:02:56;;;;;;;19.47;9.40;;;;;;;-13.99;100.00;100121.09;6105261;19;20006;-70
2024/01/09 05:04:56;;;;;;;22.92;10.20;;;;;;;-13.92;100.00;100123.88;6107094;19;20135;-70
2024/01/09 05:06:57;;;;;;;22.05;9.90;;;;;;;-13.94;100.00;100129.38;6106794;19;20010;-70
2024/01/09 05:08:57;;;;;;;17.63;8.27;;;;;;;-14.13;100.00;100121.91;6108095;19;20405;-70
2024/01/09 05:10:57;;;;;;;18.58;8.23;;;;;;;-14.19;100.00;100114.63;6105187;19;20006;-70
2024/01/09 05:12:58;;;;;;;21.05;9.73;;;;;;;-14.20;100.00;100124.44;6105495;19;20014;-70
2024/01/09 05:14:58;;;;;;;15.45;8.75;;;;;;;-14.28;100.00;100121.84;6105300;19;20466;-70
2024/01/09 05:16:58;;;;;;;22.30;9.88;;;;;;;-14.24;100.00;100122.28;6107082;19;20313;-70
2024/01/09 05:18:59;;;;;;;17.42;8.45;;;;;;;-14.03;100.00;100126.97;6107135;19;19998;-70
2024/01/09 05:20:59;;;;;;;21.58;10.05;;;;;;;-13.98;100.00;100129.91;6107040;19;20006;-70
2024/01/09 05:23:00;;;;;;;19.83;9.02;;;;;;;-13.90;100.00;100130.69;6106408;19;20006;-70
2024/01/09 05:25:00;;;;;;;20.15;8.82;;;;;;;-13.84;100.00;100128.28;6106490;19;20432;-70
2024/01/09 05:27:00;;;;;;;25.75;10.90;;;;;;;-13.86;100.00;100127.66;6107020;19;20082;-70
2024/01/09 05:29:01;;;;;;;20.55;9.35;;;;;;;-13.80;100.00;100129.59;6107098;19;20019;-71
2024/01/09 05:31:02;;;;;;;26.25;10.73;;;;;;;-13.75;100.00;100122.69;6105385;19;19998;-70
2024/01/09 05:33:02;;;;;;;24.85;10.85;;;;;;;-13.80;100.00;100125.09;6105145;19;19998;-70
2024/01/09 05:35:03;;;;;;;21.45;11.00;;;;;;;-13.76;100.00;100129.03;6106813;19;20022;-71
2024/01/09 05:37:03;;;;;;;33.15;12.98;;;;;;;-13.78;100.00;100128.41;6105905;19;20044;-70
2024/01/09 05:39:04;;;;;;;32.13;12.02;;;;;;;-13.85;100.00;100131.97;6105590;19;19999;-71
2024/01/09 05:41:04;;;;;;;32.80;13.43;;;;;;;-13.93;100.00;100115.06;6105789;19;20549;-70
2024/01/09 05:43:04;;;;;;;34.55;14.30;;;;;;;-13.92;100.00;100129.19;6104372;19;20003;-70
2024/01/09 05:45:05;;;;;;;32.75;13.30;;;;;;;-13.90;100.00;100130.69;6104081;19;19998;-70
2024/01/09 05:47:06;;;;;;;28.83;12.18;;;;;;;-14.02;100.00;100129.44;6103966;19;20005;-71
2024/01/09 05:49:06;;;;;;;30.42;12.55;;;;;;;-14.08;100.00;100130.16;6110861;19;21048;-70
2024/01/09 05:51:06;;;;;;;27.23;12.48;;;;;;;-14.07;100.00;100138.94;6111472;19;20459;-70
2024/01/09 05:53:08;;;;;;;27.92;10.82;;;;;;;-14.13;100.00;100129.88;6109745;19;20026;-70
2024/01/09 05:55:08;;;;;;;21.83;9.88;;;;;;;-14.17;100.00;100136.53;6112739;19;20026;-70
2024/01/09 05:57:08;;;;;;;27.38;11.75;;;;;;;-14.17;100.00;100142.69;6110404;19;20174;-70
2024/01/09 05:59:09;;;;;;;20.42;10.45;;;;;;;-14.21;100.00;100132.59;6111576;19;20825;-70
2024/01/09 06:01:11;;;;;;;18.75;10.00;;;;;;;-14.19;100.00;100135.91;6108867;19;20458;-70
2024/01/09 06:03:11;;;;;;;27.40;11.05;;;;;;;-14.23;100.00;100131.91;6111060;19;20010;-70
2024/01/09 06:05:11;;;;;;;23.90;9.48;;;;;;;-14.24;100.00;100128.44;6111123;19;20038;-70
2024/01/09 06:07:12;;;;;;;16.48;8.27;;;;;;;-14.24;100.00;100138.25;6111267;19;20010;-70
2024/01/09 06:09:12;;;;;;;21.75;9.98;;;;;;;-14.20;100.00;100137.72;6111742;19;20006;-70
2024/01/09 06:11:13;;;;;;;26.65;11.55;;;;;;;-14.19;100.00;100146.53;6111347;19;20003;-71
2024/01/09 06:13:13;;;;;;;20.77;9.63;;;;;;;-14.19;100.00;100141.22;6110439;19;20009;-70
2024/01/09 06:15:13;;;;;;;32.75;11.40;;;;;;;-14.26;100.00;100148.25;6109166;19;20009;-70
2024/01/09 06:17:14;;;;;;;30.08;12.40;;;;;;;-14.24;100.00;100144.41;6112158;19;20463;-70
2024/01/09 06:19:14;;;;;;;27.60;11.40;;;;;;;-14.25;100.00;100153.38;6110579;19;20074;-70
2024/01/09 06:21:14;;;;;;;31.48;11.55;;;;;;;-14.35;100.00;100144.81;6111328;19;20479;-70
2024/01/09 06:23:15;;;;;;;25.42;9.57;;;;;;;-14.28;100.00;100144.94;6110305;19;20459;-71
2024/01/09 06:25:15;;;;;;;20.70;10.20;;;;;;;-14.30;100.00;100153.09;6111199;19;20026;-70
2024/01/09 06:27:15;;;;;;;24.50;10.88;;;;;;;-14.43;100.00;100149.34;6111416;19;20015;-70
2024/01/09 06:29:17;;;;;;;22.25;10.02;;;;;;;-14.46;100.00;100153.25;6110107;19;20055;-70
2024/01/09 06:31:17;;;;;;;19.73;9.63;;;;;;;-14.45;100.00;100151.41;6110340;19;19999;-70
2024/01/09 06:33:17;;;;;;;19.90;9.55;;;;;;;-14.45;100.00;100154.06;6110122;19;20018;-70
2024/01/09 06:35:18;;;;;;;20.13;9.27;;;;;;;-14.45;100.00;100152.22;6110666;19;20014;-70
2024/01/09 06:37:18;;;;;;;25.92;11.38;;;;;;;-14.50;100.00;100154.56;6111080;19;20040;-70
2024/01/09 06:39:18;;;;;;;33.33;14.23;;;;;;;-14.44;100.00;100155.69;6111085;19;20010;-70
2024/01/09 06:41:19;;;;;;;25.30;10.93;;;;;;;-14.35;100.00;100158.09;6111006;19;20453;-71
2024/01/09 06:43:19;;;;;;;33.03;11.70;;;;;;;-14.17;100.00;100161.28;6110203;19;20943;-71
2024/01/09 06:45:19;;;;;;;18.90;9.93;;;;;;;-14.18;100.00;100159.66;6109962;19;20086;-70
2024/01/09 06:47:20;;;;;;;20.25;9.95;;;;;;;-14.18;100.00;100164.13;6109890;19;20011;-71
2024/01/09 06:49:20;;;;;;;19.10;8.40;;;;;;;-14.23;100.00;100169.16;6101569;19;20044;-71
2024/01/09 06:51:20;;;;;;;20.92;8.77;;;;;;;-14.21;100.00;100172.47;6110800;19;20015;-71
2024/01/09 06:53:21;;;;;;;17.90;9.50;;;;;;;-14.25;100.00;100169.34;6108539;19;20010;-70
2024/01/09 06:55:21;;;;;;;18.80;8.00;;;;;;;-14.22;100.00;100170.84;6110426;19;20007;-71
2024/01/09 06:57:21;;;;;;;19.92;8.45;;;;;;;-14.13;100.00;100166.28;6109185;19;20013;-71
2024/01/09 06:59:22;;;;;;;24.08;11.10;;;;;;;-14.00;100.00;100169.97;6107151;19;20010;-71
2024/01/09 07:01:22;;;;;;;23.20;9.45;;;;;;;-13.90;100.00;100170.59;6110744;19;20018;-71
2024/01/09 07:03:22;;;;;;;23.40;10.05;;;;;;;-13.77;100.00;100175.28;6109778;19;20007;-71
2024/01/09 07:05:23;;;;;;;21.75;9.45;;;;;;;-13.71;100.00;100177.25;6108705;19;20011;-71
2024/01/09 07:07:23;;;;;;;22.80;9.05;;;;;;;-13.67;100.00;100173.19;6105417;19;20006;-71
2024/01/09 07:09:23;;;;;;;20.77;8.05;;;;;;;-13.52;100.00;100175.91;6110204;19;20003;-71
2024/01/09 07:11:24;;;;;;;22.48;10.73;;;;;;;-13.37;100.00;100178.59;6109072;19;20495;-71
2024/01/09 07:13:24;;;;;;;25.23;10.10;;;;;;;-13.37;100.00;100176.75;6108326;19;20033;-71
2024/01/09 07:15:24;;;;;;;20.27;7.40;;;;;;;-13.36;100.00;100178.41;6109046;19;20009;-71
2024/01/09 07:17:25;;;;;;;20.77;7.93;;;;;;;-13.32;100.00;100181.50;6107199;19;20021;-71
2024/01/09 07:19:25;;;;;;;20.50;7.90;;;;;;;-13.34;100.00;100188.88;6109732;19;20403;-70
2024/01/09 07:21:25;;;;;;;20.40;9.43;;;;;;;-13.34;100.00;100186.19;6110046;19;20010;-71
2024/01/09 07:23:25;;;;;;;19.25;8.63;;;;;;;-13.29;100.00;100189.16;6108242;19;20006;-71
2024/01/09 07:25:26;;;;;;;23.48;8.55;;;;;;;-13.35;100.00;100188.03;6109201;19;20050;-71
2024/01/09 07:27:26;;;;;;;18.77;9.43;;;;;;;-13.45;100.00;100191.97;6108244;19;20430;-71
2024/01/09 07:29:26;;;;;;;21.23;9.05;;;;;;;-13.43;100.00;100196.09;6108632;19;20007;-71
2024/01/09 07:31:27;;;;;;;25.90;10.80;;;;;;;-13.51;100.00;100203.34;6109288;19;20006;-71
2024/01/09 07:33:27;;;;;;;24.75;9.80;;;;;;;-13.53;100.00;100195.53;6106753;19;20007;-71
2024/01/09 07:35:27;;;;;;;23.05;9.30;;;;;;;-13.45;100.00;100195.47;6109092;19;20002;-71
2024/01/09 07:37:27;;;;;;;24.00;10.57;;;;;;;-13.47;100.00;100197.50;6107537;19;20103;-71
2024/01/09 07:39:28;;;;;;;24.42;10.60;;;;;;;-13.33;100.00;100187.84;6107790;19;19998;-71
2024/01/09 07:41:28;;;;;;;23.63;9.10;;;;;;;-13.35;100.00;100195.22;6109097;19;20070;-71
2024/01/09 07:43:29;;;;;;;19.10;10.02;;;;;;;-13.41;100.00;100193.25;6108000;19;20013;-71
2024/01/09 07:45:29;;;;;;;18.17;9.05;;;;;;;-13.41;100.00;100198.59;6109195;19;20022;-71
2024/01/09 07:47:29;;;;;;;20.05;8.65;;;;;;;-13.40;100.00;100202.94;6106446;19;20039;-71
2024/01/09 07:49:30;;;;;;;24.02;9.63;;;;;;;-13.33;100.00;100201.16;6101756;19;20003;-71
2024/01/09 07:51:30;;;;;;;21.33;8.87;;;;;;;-13.27;100.00;100194.31;6101614;19;20275;-70
2024/01/09 07:53:31;;;;;;;17.80;9.02;;;;;;;-13.27;100.00;100208.44;6099043;19;20238;-71
2024/01/09 07:55:31;;;;;;;17.40;8.00;;;;;;;-13.29;100.00;100199.00;6101596;19;20748;-70
2024/01/09 07:57:33;;;;;;;19.33;8.57;;;;;;;-13.27;100.00;100202.28;6099788;19;20011;-70
2024/01/09 07:59:33;;;;;;;14.87;7.77;;;;;;;-13.21;100.00;100209.56;6100736;19;20013;-70
2024/01/09 08:01:34;;;;;;;16.52;8.93;;;;;;;-13.31;100.00;100204.50;6100993;19;20265;-71
2024/01/09 08:03:35;;;;;;;18.67;10.02;;;;;;;-13.28;100.00;100214.78;6099526;19;20452;-70
2024/01/09 08:05:37;;;;;;;19.52;8.68;;;;;;;-13.25;100.00;100210.91;6100442;19;20039;-70
2024/01/09 08:07:37;;;;;;;19.17;8.77;;;;;;;-13.25;100.00;100216.25;6101017;19;20070;-70
2024/01/09 08:09:37;;;;;;;19.45;8.20;;;;;;;-13.19;100.00;100221.66;6099318;19;20019;-71
2024/01/09 08:11:38;;;;;;;24.52;9.73;;;;;;;-13.11;100.00;100216.22;6099386;19;20026;-70
2024/01/09 08:13:40;;;;;;;22.70;9.88;;;;;;;-13.04;100.00;100222.50;6100042;19;20003;-71
2024/01/09 08:15:40;;;;;;;20.45;8.88;;;;;;;-12.97;100.00;100221.78;6100168;19;20467;-71
2024/01/09 08:17:41;;;;;;;18.92;8.52;;;;;;;-12.85;100.00;100218.44;6100490;19;20013;-71
2024/01/09 08:19:41;;;;;;;18.23;8.68;;;;;;;-12.81;100.00;100221.59;6100658;19;20025;-71
2024/01/09 08:21:42;;;;;;;20.38;9.40;;;;;;;-12.83;100.00;100218.25;6100183;19;20010;-71
2024/01/09 08:23:42;;;;;;;19.77;8.18;;;;;;;-12.88;100.00;100212.66;6099130;19;20394;-71
2024/01/09 08:25:43;;;;;;;23.08;9.43;;;;;;;-12.85;100.00;100205.13;6099658;19;20345;-70
2024/01/09 08:27:43;;;;;;;24.23;10.10;;;;;;;-12.84;100.00;100212.09;6100464;19;20007;-71
2024/01/09 08:29:43;;;;;;;21.40;8.73;;;;;;;-12.78;100.00;100221.22;6100219;19;20689;-71
2024/01/09 08:31:45;;;;;;;17.40;8.27;;;;;;;-12.79;100.00;100215.06;6099928;19;20020;-71
2024/01/09 08:33:45;;;;;;;22.80;9.00;;;;;;;-12.80;100.00;100217.91;6098971;19;20011;-71
2024/01/09 08:35:49;;;;;;;28.70;10.13;;;;;;;-12.82;100.00;100203.94;6099501;19;20010;-71
2024/01/09 08:37:50;;;;;;;21.17;8.60;;;;;;;-12.77;100.00;100221.00;6100451;19;20030;-71
2024/01/09 08:39:50;;;;;;;23.83;10.48;;;;;;;-12.75;100.00;100213.66;6098873;19;20331;-71
2024/01/09 08:41:50;;;;;;;28.23;11.18;;;;;;;-12.77;100.00;100210.34;6100418;19;20083;-71
2024/01/09 08:43:51;;;;;;;25.38;9.57;;;;;;;-12.66;100.00;100217.03;6099529;19;20011;-70
2024/01/09 08:45:51;;;;;;;20.77;9.32;;;;;;;-12.68;100.00;100210.25;6100021;19;20353;-71
2024/01/09 08:47:51;;;;;;;22.52;9.30;;;;;;;-12.72;100.00;100217.81;6097590;19;20103;-70
2024/01/09 08:49:53;;;;;;;28.25;10.10;;;;;;;-12.77;100.00;100217.53;6107839;19;20018;-71
2024/01/09 08:51:54;;;;;;;22.30;10.23;;;;;;;-12.75;100.00;100223.50;6107764;19;20601;-70
2024/01/09 08:53:55;;;;;;;26.90;13.38;;;;;;;-12.77;100.00;100217.53;6105769;19;20361;-71
2024/01/09 08:55:55;;;;;;;24.00;11.32;;;;;;;-12.78;100.00;100224.69;6107837;19;20007;-71
2024/01/09 08:57:55;;;;;;;23.70;12.63;;;;;;;-12.78;100.00;100232.69;6107429;19;20467;-71